createdAt,value
2018-06-30T00:00:18.644Z,16.80
2018-06-30T00:02:49.490Z,16.70
2018-06-30T00:05:21.779Z,16.80
2018-06-30T00:07:53.491Z,17.23
2018-06-30T00:10:29.265Z,17.00
2018-06-30T00:13:02.372Z,18.20
2018-06-30T00:15:34.533Z,16.47
2018-06-30T00:18:06.409Z,16.73
2018-06-30T00:20:38.774Z,15.27
2018-06-30T00:23:10.652Z,16.27
2018-06-30T00:25:42.683Z,16.37
2018-06-30T00:28:14.455Z,18.23
2018-06-30T00:30:46.130Z,16.83
2018-06-30T00:33:18.230Z,17.27
2018-06-30T00:35:50.361Z,15.80
2018-06-30T00:38:22.029Z,17.70
2018-06-30T00:40:53.198Z,15.83
2018-06-30T00:43:25.827Z,16.60
2018-06-30T00:45:57.976Z,15.93
2018-06-30T00:48:29.678Z,16.57
2018-06-30T00:51:01.551Z,17.00
2018-06-30T00:53:33.572Z,16.93
2018-06-30T00:56:06.161Z,17.20
2018-06-30T00:58:38.772Z,18.37
2018-06-30T01:01:10.542Z,18.40
2018-06-30T01:03:42.332Z,17.80
2018-06-30T01:06:13.945Z,14.67
2018-06-30T01:08:45.808Z,15.60
2018-06-30T01:11:17.721Z,17.17
2018-06-30T01:13:49.408Z,17.67
2018-06-30T01:16:21.511Z,16.73
2018-06-30T01:18:53.340Z,17.97
2018-06-30T01:21:25.631Z,16.73
2018-06-30T01:23:57.592Z,18.50
2018-06-30T01:26:28.955Z,17.60
2018-06-30T01:29:01.276Z,18.47
2018-06-30T01:31:33.529Z,20.13
2018-06-30T01:34:05.413Z,20.13
2018-06-30T01:36:37.329Z,16.93
2018-06-30T01:39:11.860Z,17.10
2018-06-30T01:41:43.670Z,17.30
2018-06-30T01:44:14.754Z,17.27
2018-06-30T01:46:47.027Z,17.90
2018-06-30T01:49:19.165Z,17.30
2018-06-30T01:51:51.411Z,18.20
2018-06-30T01:54:23.058Z,17.73
2018-06-30T01:56:55.097Z,17.73
2018-06-30T01:59:28.179Z,16.00
2018-06-30T02:02:00.749Z,18.60
2018-06-30T02:04:33.586Z,16.97
2018-06-30T02:07:05.687Z,18.60
2018-06-30T02:09:37.434Z,18.20
2018-06-30T02:12:09.483Z,18.07
2018-06-30T02:14:41.219Z,17.23
2018-06-30T02:17:14.638Z,18.20
2018-06-30T02:19:46.471Z,17.13
2018-06-30T02:22:18.591Z,19.13
2018-06-30T02:24:50.887Z,17.50
2018-06-30T02:27:23.230Z,17.77
2018-06-30T02:29:55.749Z,18.27
2018-06-30T02:32:26.931Z,19.03
2018-06-30T02:34:57.771Z,17.50
2018-06-30T02:37:29.639Z,18.63
2018-06-30T02:40:01.318Z,19.63
2018-06-30T02:42:33.285Z,18.60
2018-06-30T02:45:05.218Z,18.20
2018-06-30T02:47:37.795Z,18.83
2018-06-30T02:50:10.055Z,18.90
2018-06-30T02:52:42.105Z,20.00
2018-06-30T02:55:13.801Z,19.30
2018-06-30T02:57:45.242Z,19.10
2018-06-30T03:00:19.256Z,19.60
2018-06-30T03:02:51.198Z,19.47
2018-06-30T03:05:23.119Z,19.03
2018-06-30T03:07:55.191Z,18.40
2018-06-30T03:10:26.923Z,19.87
2018-06-30T03:12:58.879Z,18.30
2018-06-30T03:15:31.426Z,18.90
2018-06-30T03:18:03.350Z,20.27
2018-06-30T03:20:34.221Z,19.90
2018-06-30T03:23:05.690Z,20.40
2018-06-30T03:25:37.611Z,19.57
2018-06-30T03:28:09.469Z,21.70
2018-06-30T03:30:41.618Z,21.50
2018-06-30T03:33:12.884Z,20.93
2018-06-30T03:35:44.714Z,21.40
2018-06-30T03:38:15.928Z,25.70
2018-06-30T03:40:48.126Z,23.10
2018-06-30T03:43:20.427Z,23.70
2018-06-30T03:45:52.346Z,24.93
2018-06-30T03:48:23.687Z,24.43
2018-06-30T03:50:54.605Z,27.17
2018-06-30T03:53:26.547Z,25.70
2018-06-30T03:55:58.435Z,25.40
2018-06-30T03:58:30.489Z,26.37
2018-06-30T04:01:03.991Z,25.00
2018-06-30T04:03:36.553Z,23.30
2018-06-30T04:06:09.013Z,26.00
2018-06-30T04:08:40.966Z,25.00
2018-06-30T04:11:13.198Z,23.10
2018-06-30T04:13:45.291Z,25.27
2018-06-30T04:16:16.944Z,26.50
2018-06-30T04:18:49.206Z,23.70
2018-06-30T04:21:21.011Z,24.97
2018-06-30T04:23:53.680Z,25.83
2018-06-30T04:26:25.761Z,28.50
2018-06-30T04:28:57.859Z,24.93
2018-06-30T04:31:29.728Z,22.43
2018-06-30T04:34:01.738Z,25.10
2018-06-30T04:36:33.777Z,24.50
2018-06-30T04:39:07.831Z,23.77
2018-06-30T04:41:39.739Z,22.50
2018-06-30T04:44:11.967Z,24.70
2018-06-30T04:46:43.871Z,23.53
2018-06-30T04:49:16.238Z,23.63
2018-06-30T04:51:48.011Z,22.50
2018-06-30T04:54:20.284Z,24.10
2018-06-30T04:56:52.236Z,25.00
2018-06-30T04:59:24.342Z,25.67
2018-06-30T05:01:57.206Z,26.77
2018-06-30T05:04:29.236Z,23.13
2018-06-30T05:07:00.800Z,25.20
2018-06-30T05:09:32.934Z,25.23
2018-06-30T05:12:04.883Z,24.90
2018-06-30T05:14:37.146Z,23.30
2018-06-30T05:17:09.116Z,24.63
2018-06-30T05:19:40.894Z,24.03
2018-06-30T05:22:12.607Z,24.65
2018-06-30T05:24:45.331Z,24.25
2018-06-30T05:27:17.576Z,24.32
2018-06-30T05:29:48.720Z,23.30
2018-06-30T05:32:19.758Z,25.37
2018-06-30T05:34:52.422Z,24.00
2018-06-30T05:37:25.409Z,26.50
2018-06-30T05:39:57.453Z,24.50
2018-06-30T05:42:28.670Z,25.43
2018-06-30T05:45:00.798Z,22.93
2018-06-30T05:47:32.585Z,23.07
2018-06-30T05:50:04.349Z,22.73
2018-06-30T05:52:35.477Z,22.93
2018-06-30T05:55:07.774Z,21.97
2018-06-30T05:57:39.806Z,21.27
2018-06-30T06:00:12.143Z,21.23
2018-06-30T06:02:44.510Z,21.35
2018-06-30T06:05:16.579Z,21.23
2018-06-30T06:07:48.371Z,20.02
2018-06-30T06:10:19.605Z,20.95
2018-06-30T06:12:51.293Z,23.27
2018-06-30T06:15:23.328Z,21.93
2018-06-30T06:17:55.362Z,21.60
2018-06-30T06:20:27.740Z,20.20
2018-06-30T06:22:59.524Z,19.48
2018-06-30T06:25:31.637Z,20.25
2018-06-30T06:28:03.514Z,18.98
2018-06-30T06:30:35.541Z,17.67
2018-06-30T06:33:07.354Z,18.30
2018-06-30T06:35:40.362Z,19.27
2018-06-30T06:38:12.118Z,18.80
2018-06-30T06:40:44.095Z,16.95
2018-06-30T06:43:15.912Z,19.62
2018-06-30T06:45:47.653Z,19.70
2018-06-30T06:48:19.304Z,19.25
2018-06-30T06:50:51.237Z,18.82
2018-06-30T06:53:23.094Z,17.90
2018-06-30T06:55:55.186Z,19.00
2018-06-30T06:58:27.044Z,18.12
2018-06-30T07:00:58.811Z,17.05
2018-06-30T07:03:31.483Z,18.73
2018-06-30T07:06:03.807Z,18.07
2018-06-30T07:08:34.816Z,15.85
2018-06-30T07:11:06.918Z,16.77
2018-06-30T07:13:38.586Z,17.50
2018-06-30T07:16:11.450Z,18.02
2018-06-30T07:18:43.149Z,19.60
2018-06-30T07:21:15.300Z,18.85
2018-06-30T07:23:46.929Z,16.82
2018-06-30T07:26:17.974Z,18.00
2018-06-30T07:28:48.750Z,16.60
2018-06-30T07:31:20.741Z,16.55
2018-06-30T07:33:52.962Z,17.65
2018-06-30T07:36:25.051Z,16.65
2018-06-30T07:38:56.998Z,15.48
2018-06-30T07:41:28.871Z,16.52
2018-06-30T07:44:00.503Z,16.20
2018-06-30T07:46:32.516Z,18.17
2018-06-30T07:49:04.290Z,16.90
2018-06-30T07:51:36.425Z,16.73
2018-06-30T07:54:08.397Z,16.37
2018-06-30T07:56:40.699Z,15.65
2018-06-30T07:59:12.385Z,16.00
2018-06-30T08:01:44.268Z,16.32
2018-06-30T08:04:16.910Z,15.95
2018-06-30T08:06:48.978Z,16.20
2018-06-30T08:09:21.526Z,15.93
2018-06-30T08:11:53.608Z,18.27
2018-06-30T08:14:25.376Z,16.52
2018-06-30T08:16:57.409Z,15.72
2018-06-30T08:19:29.364Z,16.40
2018-06-30T08:22:01.654Z,17.15
2018-06-30T08:24:33.536Z,17.42
2018-06-30T08:27:05.649Z,16.42
2018-06-30T08:29:37.758Z,14.38
2018-06-30T08:32:09.845Z,14.73
2018-06-30T08:34:41.430Z,15.45
2018-06-30T08:37:14.079Z,16.12
2018-06-30T08:39:46.175Z,14.63
2018-06-30T08:42:18.330Z,16.67
2018-06-30T08:44:50.186Z,15.50
2018-06-30T08:47:21.959Z,15.20
2018-06-30T08:49:53.558Z,15.08
2018-06-30T08:52:25.926Z,15.13
2018-06-30T08:54:57.639Z,17.17
2018-06-30T08:57:29.917Z,22.40
2018-06-30T09:00:00.726Z,21.00
2018-06-30T09:02:32.751Z,23.10
2018-06-30T09:05:05.102Z,24.02
2018-06-30T09:07:37.001Z,21.77
2018-06-30T09:10:08.730Z,23.22
2018-06-30T09:12:40.657Z,23.15
2018-06-30T09:15:12.390Z,22.93
2018-06-30T09:17:44.559Z,22.17
2018-06-30T09:20:16.600Z,23.73
2018-06-30T09:22:48.654Z,22.17
2018-06-30T09:25:20.602Z,24.20
2018-06-30T09:27:52.466Z,24.92
2018-06-30T09:30:24.170Z,25.68
2018-06-30T09:32:56.037Z,22.25
2018-06-30T09:35:26.862Z,24.12
2018-06-30T09:37:58.218Z,23.12
2018-06-30T09:40:30.127Z,23.55
2018-06-30T09:43:02.542Z,23.02
2018-06-30T09:45:34.353Z,23.25
2018-06-30T09:48:06.391Z,20.97
2018-06-30T09:50:37.198Z,23.80
2018-06-30T09:53:09.140Z,22.60
2018-06-30T09:55:40.863Z,24.27
2018-06-30T09:58:12.686Z,22.80
2018-06-30T10:00:49.092Z,22.63
2018-06-30T10:03:21.572Z,22.85
2018-06-30T10:05:54.388Z,22.50
2018-06-30T10:08:26.613Z,23.18
2018-06-30T10:10:57.464Z,24.67
2018-06-30T10:13:29.634Z,24.23
2018-06-30T10:16:01.524Z,23.83
2018-06-30T10:18:33.378Z,21.70
2018-06-30T10:21:05.294Z,25.07
2018-06-30T10:23:37.371Z,20.97
2018-06-30T10:26:09.157Z,25.37
2018-06-30T10:28:41.257Z,21.93
2018-06-30T10:31:13.115Z,24.90
2018-06-30T10:33:44.936Z,24.35
2018-06-30T10:36:16.541Z,24.07
2018-06-30T10:38:48.934Z,23.10
2018-06-30T10:41:20.738Z,21.70
2018-06-30T10:43:52.846Z,23.00
2018-06-30T10:46:24.834Z,24.20
2018-06-30T10:48:56.515Z,23.67
2018-06-30T10:51:28.205Z,24.03
2018-06-30T10:54:01.396Z,25.20
2018-06-30T10:56:33.298Z,22.27
2018-06-30T10:59:05.402Z,24.07
2018-06-30T11:01:37.256Z,21.57
2018-06-30T11:04:09.232Z,23.87
2018-06-30T11:06:42.710Z,21.67
2018-06-30T11:09:14.517Z,22.90
2018-06-30T11:11:46.183Z,25.73
2018-06-30T11:14:20.474Z,24.33
2018-06-30T11:16:53.555Z,22.00
2018-06-30T11:19:25.659Z,23.00
2018-06-30T11:21:57.251Z,23.37
2018-06-30T11:24:42.578Z,22.37
2018-06-30T11:27:23.714Z,24.53
2018-06-30T11:29:55.662Z,23.57
2018-06-30T11:32:41.199Z,24.17
2018-06-30T11:35:12.970Z,22.70
2018-06-30T11:37:44.665Z,22.47
2018-06-30T11:40:16.353Z,22.60
2018-06-30T11:42:48.113Z,22.90
2018-06-30T11:45:20.084Z,25.37
2018-06-30T11:47:51.846Z,22.93
2018-06-30T11:50:23.981Z,23.37
2018-06-30T11:52:55.731Z,23.17
2018-06-30T11:55:28.240Z,23.43
2018-06-30T11:58:00.901Z,23.30
2018-06-30T12:00:32.926Z,23.70
2018-06-30T12:03:04.762Z,23.37
2018-06-30T12:05:37.426Z,23.17
2018-06-30T12:08:10.491Z,22.80
2018-06-30T12:10:42.395Z,25.43
2018-06-30T12:13:14.037Z,24.40
2018-06-30T12:15:46.195Z,23.37
2018-06-30T12:18:17.917Z,22.80
2018-06-30T12:20:50.411Z,23.17
2018-06-30T12:23:22.935Z,24.20
2018-06-30T12:25:55.154Z,23.47
2018-06-30T12:28:26.811Z,23.40
2018-06-30T12:30:58.709Z,21.97
2018-06-30T12:33:30.439Z,23.17
2018-06-30T12:36:03.195Z,21.63
2018-06-30T12:38:34.986Z,23.60
2018-06-30T12:41:06.837Z,23.03
2018-06-30T12:43:39.336Z,23.97
2018-06-30T12:46:11.531Z,23.73
2018-06-30T12:48:43.198Z,22.07
2018-06-30T12:51:15.262Z,22.57
2018-06-30T12:53:46.794Z,23.10
2018-06-30T12:56:18.645Z,22.90
2018-06-30T12:58:50.490Z,24.00
2018-06-30T13:01:22.585Z,21.90
2018-06-30T13:03:54.872Z,23.53
2018-06-30T13:06:27.024Z,23.67
2018-06-30T13:08:59.146Z,23.77
2018-06-30T13:11:31.151Z,22.07
2018-06-30T13:14:03.094Z,24.43
2018-06-30T13:16:35.446Z,25.10
2018-06-30T13:19:08.106Z,23.60
2018-06-30T13:21:40.079Z,23.57
2018-06-30T13:24:11.855Z,21.03
2018-06-30T13:26:44.933Z,22.93
2018-06-30T13:29:16.717Z,23.63
2018-06-30T13:31:48.423Z,22.30
2018-06-30T13:34:20.312Z,22.93
2018-06-30T13:36:52.415Z,22.50
2018-06-30T13:39:24.026Z,23.20
2018-06-30T13:41:55.922Z,22.30
2018-06-30T13:44:27.761Z,24.93
2018-06-30T13:46:59.884Z,24.03
2018-06-30T13:49:31.950Z,30.57
2018-06-30T13:52:03.897Z,30.50
2018-06-30T13:54:34.867Z,34.23
2018-06-30T13:57:06.689Z,28.30
2018-06-30T13:59:38.458Z,24.23
2018-06-30T14:02:10.474Z,24.30
2018-06-30T14:04:42.302Z,26.00
2018-06-30T14:07:15.089Z,25.40
2018-06-30T14:09:48.903Z,25.23
2018-06-30T14:12:20.038Z,25.17
2018-06-30T14:14:51.882Z,23.30
2018-06-30T14:17:22.936Z,26.37
2018-06-30T14:19:54.726Z,24.40
2018-06-30T14:22:25.719Z,24.23
2018-06-30T14:24:57.407Z,24.30
2018-06-30T14:27:29.426Z,25.67
2018-06-30T14:30:01.299Z,25.63
2018-06-30T14:32:33.354Z,26.73
2018-06-30T14:35:05.302Z,26.07
2018-06-30T14:37:37.332Z,23.07
2018-06-30T14:40:09.817Z,24.13
2018-06-30T14:42:41.926Z,24.07
2018-06-30T14:45:13.790Z,23.97
2018-06-30T14:47:44.965Z,24.10
2018-06-30T14:50:16.659Z,22.20
2018-06-30T14:52:49.411Z,21.93
2018-06-30T14:55:21.110Z,23.20
2018-06-30T14:57:53.186Z,21.77
2018-06-30T15:00:25.133Z,21.67
2018-06-30T15:02:57.174Z,21.80
2018-06-30T15:05:29.147Z,24.27
2018-06-30T15:08:01.019Z,23.07
2018-06-30T15:10:34.293Z,22.27
2018-06-30T15:13:06.692Z,23.37
2018-06-30T15:15:38.302Z,23.40
2018-06-30T15:18:10.394Z,22.30
2018-06-30T15:20:42.558Z,23.10
2018-06-30T15:23:13.794Z,22.30
2018-06-30T15:25:44.502Z,21.80
2018-06-30T15:28:16.809Z,23.63
2018-06-30T15:30:47.614Z,23.33
2018-06-30T15:33:20.432Z,24.07
2018-06-30T15:35:51.224Z,23.63
2018-06-30T15:38:22.197Z,22.80
2018-06-30T15:40:53.015Z,22.60
2018-06-30T15:43:24.730Z,23.07
2018-06-30T15:45:56.564Z,20.80
2018-06-30T15:48:27.589Z,21.70
2018-06-30T15:50:59.241Z,24.50
2018-06-30T15:53:31.323Z,22.07
2018-06-30T15:56:02.898Z,22.60
2018-06-30T15:58:34.777Z,21.87
2018-06-30T16:01:06.688Z,21.57
2018-06-30T16:03:38.614Z,22.03
2018-06-30T16:06:10.395Z,23.00
2018-06-30T16:08:42.450Z,22.03
2018-06-30T16:11:15.461Z,23.57
2018-06-30T16:13:47.661Z,23.90
2018-06-30T16:16:19.602Z,22.87
2018-06-30T16:18:51.710Z,21.90
2018-06-30T16:21:23.302Z,22.90
2018-06-30T16:23:55.359Z,21.20
2018-06-30T16:26:27.269Z,23.20
2018-06-30T16:28:59.243Z,20.73
2018-06-30T16:31:31.171Z,22.57
2018-06-30T16:34:03.393Z,22.37
2018-06-30T16:36:35.106Z,22.90
2018-06-30T16:39:09.573Z,24.07
2018-06-30T16:41:40.554Z,21.80
2018-06-30T16:44:12.463Z,22.87
2018-06-30T16:46:44.306Z,22.50
2018-06-30T16:49:16.299Z,23.43
2018-06-30T16:51:48.303Z,22.87
2018-06-30T16:54:20.670Z,21.67
2018-06-30T16:56:52.455Z,22.90
2018-06-30T16:59:24.415Z,22.80
2018-06-30T17:01:56.031Z,21.60
2018-06-30T17:04:27.935Z,22.53
2018-06-30T17:06:59.785Z,22.93
2018-06-30T17:09:31.746Z,21.10
2018-06-30T17:12:04.013Z,22.20
2018-06-30T17:14:36.309Z,22.57
2018-06-30T17:17:07.847Z,22.47
2018-06-30T17:19:39.954Z,20.50
2018-06-30T17:22:11.567Z,23.10
2018-06-30T17:24:43.458Z,24.07
2018-06-30T17:27:15.207Z,22.53
2018-06-30T17:29:47.051Z,22.57
2018-06-30T17:32:18.730Z,22.20
2018-06-30T17:34:50.562Z,21.53
2018-06-30T17:37:22.211Z,20.97
2018-06-30T17:39:53.963Z,23.00
2018-06-30T17:42:25.730Z,20.97
2018-06-30T17:44:57.594Z,21.90
2018-06-30T17:47:29.346Z,22.77
2018-06-30T17:50:01.505Z,23.03
2018-06-30T17:52:33.189Z,20.83
2018-06-30T17:55:05.230Z,21.27
2018-06-30T17:57:37.106Z,23.77
2018-06-30T18:00:10.914Z,22.43
2018-06-30T18:02:42.653Z,23.50
2018-06-30T18:05:14.691Z,21.10
2018-06-30T18:07:46.512Z,23.67
2018-06-30T18:10:18.754Z,24.33
2018-06-30T18:12:51.513Z,25.17
2018-06-30T18:18:00.966Z,24.77
2018-06-30T18:20:33.131Z,23.33
2018-06-30T18:23:05.078Z,21.90
2018-06-30T18:25:36.351Z,23.93
2018-06-30T18:28:08.458Z,23.13
2018-06-30T18:30:40.419Z,23.00
2018-06-30T18:33:12.223Z,24.20
2018-06-30T18:35:44.374Z,22.63
2018-06-30T18:38:16.101Z,22.87
2018-06-30T18:40:47.966Z,22.40
2018-06-30T18:43:19.915Z,21.30
2018-06-30T18:45:51.697Z,22.47
2018-06-30T18:48:23.525Z,22.47
2018-06-30T18:50:55.288Z,23.07
2018-06-30T18:53:27.022Z,22.10
2018-06-30T18:55:59.213Z,22.20
2018-06-30T18:58:30.731Z,24.20
2018-06-30T19:01:02.445Z,22.83
2018-06-30T19:03:33.974Z,23.53
2018-06-30T19:06:05.962Z,22.20
2018-06-30T19:08:37.972Z,22.87
2018-06-30T19:11:10.198Z,21.87
2018-06-30T19:13:43.463Z,22.70
2018-06-30T19:16:15.338Z,21.87
2018-06-30T19:18:47.223Z,23.60
2018-06-30T19:21:18.997Z,21.53
2018-06-30T19:23:49.742Z,22.20
2018-06-30T19:26:23.639Z,24.00
2018-06-30T19:28:55.678Z,22.40
2018-06-30T19:31:27.810Z,22.70
2018-06-30T19:34:01.099Z,22.73
2018-06-30T19:36:33.531Z,23.50
2018-06-30T19:39:05.402Z,22.47
2018-06-30T19:41:37.415Z,24.00
2018-06-30T19:44:09.374Z,22.53
2018-06-30T19:46:40.578Z,23.70
2018-06-30T19:49:12.569Z,22.57
2018-06-30T19:51:45.090Z,21.63
2018-06-30T19:54:16.703Z,23.33
2018-06-30T19:56:48.655Z,20.47
2018-06-30T19:59:19.377Z,21.97
2018-06-30T20:01:51.483Z,21.77
2018-06-30T20:04:23.271Z,22.10
2018-06-30T20:06:56.028Z,23.97
2018-06-30T20:09:27.938Z,21.27
2018-06-30T20:12:00.065Z,25.33
2018-06-30T20:14:32.778Z,24.43
2018-06-30T20:17:04.545Z,21.90
2018-06-30T20:19:35.614Z,24.77
2018-06-30T20:22:08.337Z,23.70
2018-06-30T20:24:39.955Z,21.13
2018-06-30T20:27:11.876Z,22.43
2018-06-30T20:29:43.706Z,22.40
2018-06-30T20:32:15.442Z,22.73
2018-06-30T20:34:47.215Z,23.20
2018-06-30T20:37:18.122Z,20.97
2018-06-30T20:39:49.712Z,21.30
2018-06-30T20:42:22.289Z,22.90
2018-06-30T20:44:54.050Z,22.80
2018-06-30T20:47:26.178Z,20.13
2018-06-30T20:49:58.102Z,21.43
2018-06-30T20:52:30.576Z,24.33
2018-06-30T20:55:02.442Z,21.80
2018-06-30T20:57:34.551Z,21.83
2018-06-30T21:00:06.661Z,24.00
2018-06-30T21:02:39.019Z,24.57
2018-06-30T21:05:10.947Z,23.20
2018-06-30T21:07:42.894Z,23.00
2018-06-30T21:10:14.623Z,24.57
2018-06-30T21:12:46.694Z,22.00
2018-06-30T21:15:19.405Z,22.50
2018-06-30T21:17:50.534Z,22.00
2018-06-30T21:20:22.326Z,22.80
2018-06-30T21:22:53.441Z,24.60
2018-06-30T21:25:25.599Z,23.87
2018-06-30T21:27:57.756Z,23.77
2018-06-30T21:30:29.672Z,23.97
2018-06-30T21:33:01.593Z,23.13
2018-06-30T21:35:33.286Z,25.00
2018-06-30T21:38:05.387Z,22.93
2018-06-30T21:40:36.326Z,20.67
2018-06-30T21:43:08.311Z,21.63
2018-06-30T21:45:40.341Z,21.33
2018-06-30T21:48:12.570Z,21.67
2018-06-30T21:50:44.231Z,21.27
2018-06-30T21:53:16.263Z,21.27
2018-06-30T21:55:48.013Z,21.60
2018-06-30T21:58:19.075Z,19.20
2018-06-30T22:00:55.344Z,20.00
2018-06-30T22:03:29.562Z,19.80
2018-06-30T22:06:02.632Z,19.07
2018-06-30T22:08:34.828Z,21.70
2018-06-30T22:11:06.803Z,21.60
2018-06-30T22:13:39.256Z,19.93
2018-06-30T22:16:11.926Z,19.10
2018-06-30T22:18:43.816Z,19.80
2018-06-30T22:21:15.687Z,18.73
2018-06-30T22:23:47.778Z,19.20
2018-06-30T22:26:19.752Z,19.40
2018-06-30T22:28:52.553Z,19.83
2018-06-30T22:31:24.161Z,19.30
2018-06-30T22:33:56.233Z,21.17
2018-06-30T22:36:28.221Z,23.93
2018-06-30T22:39:00.243Z,33.07
2018-06-30T22:41:32.410Z,30.50
2018-06-30T22:44:04.477Z,30.97
2018-06-30T22:46:36.131Z,26.50
2018-06-30T22:49:08.062Z,28.63
2018-06-30T22:51:39.869Z,26.63
2018-06-30T22:54:12.035Z,26.07
2018-06-30T22:56:43.714Z,28.83
2018-06-30T22:59:15.556Z,26.30
2018-06-30T23:01:47.322Z,24.43
2018-06-30T23:04:19.354Z,25.87
2018-06-30T23:06:51.102Z,26.63
2018-06-30T23:09:23.462Z,25.03
2018-06-30T23:11:55.247Z,22.20
2018-06-30T23:14:27.378Z,22.10
2018-06-30T23:16:59.941Z,21.90
2018-06-30T23:19:31.802Z,22.37
2018-06-30T23:22:04.655Z,20.10
2018-06-30T23:24:36.827Z,17.90
2018-06-30T23:27:08.398Z,19.93
2018-06-30T23:29:40.482Z,16.80
2018-06-30T23:32:12.209Z,16.20
2018-06-30T23:34:44.030Z,17.70
2018-06-30T23:37:15.860Z,17.43
2018-06-30T23:39:48.027Z,18.13
2018-06-30T23:42:19.797Z,16.40
2018-06-30T23:44:51.592Z,18.90
2018-06-30T23:47:23.231Z,16.93
2018-06-30T23:49:55.574Z,17.63
2018-06-30T23:52:27.312Z,15.53
2018-06-30T23:54:59.273Z,18.43
2018-06-30T23:57:31.010Z,15.20
